createdAt,value
2018-05-05T00:01:34.465Z,91.40
2018-05-05T00:07:38.840Z,90.30
2018-05-05T00:13:43.246Z,90.50
2018-05-05T00:19:47.603Z,88.50
2018-05-05T00:25:52.132Z,88.10
2018-05-05T00:31:57.413Z,88.50
2018-05-05T00:38:01.812Z,88.40
2018-05-05T00:44:06.175Z,90.00
2018-05-05T00:50:11.299Z,89.00
2018-05-05T00:56:15.810Z,88.80
2018-05-05T01:02:20.243Z,90.10
2018-05-05T01:08:24.690Z,91.20
2018-05-05T01:14:29.832Z,93.40
2018-05-05T01:20:34.185Z,93.40
2018-05-05T01:26:38.540Z,94.20
2018-05-05T01:32:43.672Z,97.00
2018-05-05T01:38:48.015Z,97.00
2018-05-05T01:44:52.608Z,97.70
2018-05-05T01:50:56.974Z,97.70
2018-05-05T01:57:01.320Z,97.80
2018-05-05T02:03:05.656Z,97.60
2018-05-05T02:09:10.008Z,97.70
2018-05-05T02:15:14.352Z,98.00
2018-05-05T02:21:19.601Z,98.60
2018-05-05T02:27:24.777Z,98.90
2018-05-05T02:33:29.142Z,98.80
2018-05-05T02:39:33.510Z,99.10
2018-05-05T02:45:38.129Z,99.20
2018-05-05T02:51:42.473Z,99.60
2018-05-05T02:57:46.859Z,99.70
2018-05-05T03:03:51.363Z,99.80
2018-05-05T03:09:56.703Z,99.90
2018-05-05T03:16:01.812Z,99.90
2018-05-05T03:22:06.207Z,99.90
2018-05-05T03:28:11.481Z,99.90
2018-05-05T03:34:15.853Z,99.90
2018-05-05T03:40:20.248Z,99.90
2018-05-05T03:46:24.617Z,99.90
2018-05-05T03:52:28.990Z,99.90
2018-05-05T03:58:33.392Z,99.90
2018-05-05T04:11:47.350Z,99.90
2018-05-05T04:17:51.927Z,99.90
2018-05-05T04:23:56.398Z,99.90
2018-05-05T04:30:00.761Z,99.90
2018-05-05T04:36:05.206Z,99.90
2018-05-05T04:42:09.607Z,99.90
2018-05-05T04:48:13.985Z,99.90
2018-05-05T04:54:18.362Z,99.90
2018-05-05T05:00:23.008Z,99.90
2018-05-05T05:06:27.750Z,99.90
2018-05-05T05:12:32.244Z,99.90
2018-05-05T05:18:36.703Z,99.90
2018-05-05T05:24:41.166Z,99.90
2018-05-05T05:30:45.541Z,99.90
2018-05-05T05:36:49.993Z,99.90
2018-05-05T05:42:54.384Z,99.90
2018-05-05T05:48:58.768Z,99.90
2018-05-05T05:55:03.194Z,99.90
2018-05-05T06:01:07.574Z,98.60
2018-05-05T06:07:12.737Z,97.60
2018-05-05T06:13:17.140Z,97.60
2018-05-05T06:19:21.617Z,97.10
2018-05-05T06:25:26.056Z,96.60
2018-05-05T06:31:30.519Z,94.30
2018-05-05T06:37:34.878Z,94.80
2018-05-05T06:43:39.315Z,93.90
2018-05-05T06:49:43.705Z,92.90
2018-05-05T06:55:48.092Z,93.30
2018-05-05T07:01:53.592Z,94.50
2018-05-05T07:07:57.994Z,92.30
2018-05-05T07:14:02.358Z,92.50
2018-05-05T07:20:06.878Z,91.50
2018-05-05T07:26:11.244Z,91.00
2018-05-05T07:32:15.800Z,90.10
2018-05-05T07:38:20.548Z,87.90
2018-05-05T07:44:25.378Z,88.70
2018-05-05T07:50:29.733Z,85.90
2018-05-05T07:56:34.106Z,85.30
2018-05-05T08:02:38.514Z,77.40
2018-05-05T08:08:42.932Z,80.80
2018-05-05T08:14:47.396Z,77.20
2018-05-05T08:20:52.067Z,75.80
2018-05-05T08:26:56.385Z,73.20
2018-05-05T08:33:00.845Z,65.80
2018-05-05T08:39:05.978Z,66.60
2018-05-05T08:45:10.360Z,66.50
2018-05-05T08:51:14.758Z,62.80
2018-05-05T08:57:19.282Z,57.70
2018-05-05T09:03:24.263Z,55.70
2018-05-05T09:09:29.443Z,57.50
2018-05-05T09:15:33.944Z,57.60
2018-05-05T09:21:39.144Z,56.30
2018-05-05T09:27:43.824Z,56.20
2018-05-05T09:33:48.497Z,57.00
2018-05-05T09:39:53.451Z,53.60
2018-05-05T09:45:57.805Z,53.80
2018-05-05T09:52:02.207Z,55.40
2018-05-05T09:58:06.580Z,55.10
2018-05-05T10:04:10.968Z,53.00
2018-05-05T10:10:15.376Z,52.70
2018-05-05T10:16:20.217Z,51.90
2018-05-05T10:22:26.212Z,52.10
2018-05-05T10:28:30.572Z,52.10
2018-05-05T10:34:35.024Z,48.00
2018-05-05T10:40:39.469Z,48.00
2018-05-05T10:46:43.847Z,47.60
2018-05-05T10:52:48.452Z,48.70
2018-05-05T10:58:53.549Z,43.90
2018-05-05T11:04:57.961Z,44.00
2018-05-05T11:11:02.535Z,44.50
2018-05-05T11:17:06.903Z,43.00
2018-05-05T11:23:11.301Z,41.80
2018-05-05T11:29:15.671Z,41.50
2018-05-05T11:35:20.534Z,42.70
2018-05-05T11:41:25.257Z,39.40
2018-05-05T11:47:29.666Z,39.30
2018-05-05T11:53:34.026Z,37.30
2018-05-05T11:59:39.159Z,35.20
2018-05-05T12:05:43.559Z,35.10
2018-05-05T12:11:47.995Z,33.40
2018-05-05T12:17:52.401Z,32.90
2018-05-05T12:23:56.769Z,31.50
2018-05-05T12:30:01.179Z,30.90
2018-05-05T12:36:05.582Z,28.50
2018-05-05T12:42:09.999Z,28.90
2018-05-05T12:48:14.354Z,29.60
2018-05-05T12:54:18.914Z,29.30
2018-05-05T13:00:23.650Z,26.70
2018-05-05T13:06:28.643Z,27.40
2018-05-05T13:12:33.908Z,23.70
2018-05-05T13:18:38.302Z,23.60
2018-05-05T13:24:42.670Z,24.30
2018-05-05T13:30:47.056Z,24.50
2018-05-05T13:36:51.518Z,23.20
2018-05-05T13:42:55.950Z,22.90
2018-05-05T13:49:01.075Z,24.40
2018-05-05T13:55:05.560Z,24.40
2018-05-05T14:01:09.941Z,22.30
2018-05-05T14:07:14.325Z,22.20
2018-05-05T14:13:18.746Z,21.90
2018-05-05T14:19:24.396Z,22.60
2018-05-05T14:25:28.780Z,22.20
2018-05-05T14:31:33.225Z,23.20
2018-05-05T14:37:37.724Z,20.10
2018-05-05T14:43:42.183Z,20.70
2018-05-05T14:49:46.558Z,23.40
2018-05-05T14:55:51.865Z,22.40
2018-05-05T15:01:56.740Z,21.60
2018-05-05T15:08:01.922Z,21.90
2018-05-05T15:14:06.317Z,21.80
2018-05-05T15:20:10.808Z,22.50
2018-05-05T15:26:15.187Z,20.80
2018-05-05T15:32:19.692Z,22.70
2018-05-05T15:38:25.146Z,20.80
2018-05-05T15:44:29.645Z,20.70
2018-05-05T15:50:34.007Z,20.50
2018-05-05T15:56:38.384Z,20.20
2018-05-05T16:02:42.757Z,20.60
2018-05-05T16:08:47.151Z,21.40
2018-05-05T16:14:51.575Z,21.60
2018-05-05T16:20:56.957Z,21.30
2018-05-05T16:27:01.336Z,21.30
2018-05-05T16:33:06.556Z,23.10
2018-05-05T16:39:10.917Z,23.10
2018-05-05T16:45:15.420Z,23.40
2018-05-05T16:51:19.807Z,24.10
2018-05-05T16:57:24.329Z,25.50
2018-05-05T17:03:29.478Z,27.20
2018-05-05T17:09:33.839Z,27.10
2018-05-05T17:15:38.196Z,28.20
2018-05-05T17:21:42.559Z,27.90
2018-05-05T17:27:47.810Z,29.50
2018-05-05T17:33:52.266Z,29.40
2018-05-05T17:39:56.627Z,28.80
2018-05-05T17:46:01.032Z,28.90
2018-05-05T17:52:05.389Z,30.80
2018-05-05T17:58:09.793Z,30.00
2018-05-05T18:04:14.251Z,29.80
2018-05-05T18:10:18.618Z,30.00
2018-05-05T18:16:22.996Z,30.90
2018-05-05T18:22:27.509Z,32.30
2018-05-05T18:28:31.910Z,33.80
2018-05-05T18:34:37.108Z,40.50
2018-05-05T18:40:41.451Z,40.40
2018-05-05T18:46:45.812Z,45.00
2018-05-05T18:52:50.366Z,48.00
2018-05-05T18:58:54.857Z,49.90
2018-05-05T19:04:59.222Z,50.50
2018-05-05T19:11:03.595Z,51.70
2018-05-05T19:17:07.974Z,51.10
2018-05-05T19:23:12.336Z,51.00
2018-05-05T19:29:16.686Z,52.30
2018-05-05T19:35:21.162Z,52.70
2018-05-05T19:41:25.615Z,52.00
2018-05-05T19:47:29.978Z,51.60
2018-05-05T19:53:34.337Z,51.80
2018-05-05T19:59:38.698Z,52.50
2018-05-05T20:05:43.077Z,52.50
2018-05-05T20:11:47.432Z,52.40
2018-05-05T20:17:52.609Z,53.00
2018-05-05T20:23:57.011Z,51.80
2018-05-05T20:30:01.368Z,50.20
2018-05-05T20:36:05.747Z,49.50
2018-05-05T20:42:10.102Z,49.40
2018-05-05T20:48:15.249Z,49.50
2018-05-05T20:54:19.776Z,49.50
2018-05-05T21:00:25.191Z,48.90
2018-05-05T21:06:29.628Z,48.90
2018-05-05T21:12:34.000Z,48.80
2018-05-05T21:18:38.360Z,48.80
2018-05-05T21:24:42.715Z,51.00
2018-05-05T21:30:47.082Z,50.60
2018-05-05T21:36:51.588Z,51.80
2018-05-05T21:42:55.961Z,53.00
2018-05-05T21:49:00.334Z,54.50
2018-05-05T21:55:04.732Z,55.90
2018-05-05T22:01:09.157Z,56.10
2018-05-05T22:07:13.525Z,55.20
2018-05-05T22:13:18.002Z,54.70
2018-05-05T22:19:23.788Z,54.50
2018-05-05T22:25:28.237Z,54.40
2018-05-05T22:31:32.644Z,56.40
2018-05-05T22:37:37.135Z,57.60
2018-05-05T22:43:41.496Z,58.90
2018-05-05T22:49:45.863Z,61.10
2018-05-05T22:55:50.266Z,63.00
2018-05-05T23:01:54.672Z,67.00
2018-05-05T23:07:59.098Z,67.70
2018-05-05T23:14:03.466Z,70.80
2018-05-05T23:20:08.584Z,80.50
2018-05-05T23:26:12.951Z,80.50
2018-05-05T23:32:17.313Z,81.20
2018-05-05T23:38:22.264Z,83.90
2018-05-05T23:44:26.614Z,86.40
2018-05-05T23:50:30.964Z,86.40
2018-05-05T23:56:35.319Z,87.00
